createdAt,value
2017-05-04T00:01:07.830Z,1006.62
2017-05-04T00:02:18.099Z,1006.61
2017-05-04T00:03:28.357Z,1006.59
2017-05-04T00:04:38.621Z,1006.61
2017-05-04T00:05:48.890Z,1006.6
2017-05-04T00:06:58.842Z,1006.64
2017-05-04T00:08:08.789Z,1006.63
2017-05-04T00:09:19.072Z,1006.67
2017-05-04T00:10:29.331Z,1006.67
2017-05-04T00:11:39.589Z,1006.73
2017-05-04T00:12:49.848Z,1006.77
2017-05-04T00:14:00.111Z,1006.75
2017-05-04T00:15:10.380Z,1006.78
2017-05-04T00:16:20.637Z,1006.82
2017-05-04T00:17:30.901Z,1006.76
2017-05-04T00:18:41.165Z,1006.78
2017-05-04T00:19:51.432Z,1006.8
2017-05-04T00:21:01.697Z,1006.78
2017-05-04T00:22:11.950Z,1006.76
2017-05-04T00:23:21.895Z,1006.79
2017-05-04T00:24:32.162Z,1006.8
2017-05-04T00:25:42.424Z,1006.82
2017-05-04T00:26:52.693Z,1006.82
2017-05-04T00:28:02.954Z,1006.86
2017-05-04T00:29:12.591Z,1006.87
2017-05-04T00:30:22.551Z,1006.85
2017-05-04T00:31:32.808Z,1006.88
2017-05-04T00:32:43.066Z,1006.93
2017-05-04T00:33:53.345Z,1006.9
2017-05-04T00:35:03.614Z,1006.95
2017-05-04T00:36:13.888Z,1006.94
2017-05-04T00:37:23.834Z,1006.96
2017-05-04T00:38:34.107Z,1006.97
2017-05-04T00:39:44.371Z,1006.99
2017-05-04T00:40:54.637Z,1007.01
2017-05-04T00:42:04.584Z,1007
2017-05-04T00:43:14.528Z,1006.98
2017-05-04T00:44:24.782Z,1006.99
2017-05-04T00:45:34.728Z,1007
2017-05-04T00:46:44.995Z,1006.97
2017-05-04T00:47:54.946Z,1007.02
2017-05-04T00:49:05.211Z,1006.96
2017-05-04T00:50:15.158Z,1007.04
2017-05-04T00:51:25.422Z,1007.02
2017-05-04T00:52:35.681Z,1007.01
2017-05-04T00:53:45.945Z,1007.02
2017-05-04T00:54:56.206Z,1007.09
2017-05-04T00:56:06.469Z,1007.08
2017-05-04T00:57:16.428Z,1007.16
2017-05-04T00:58:26.686Z,1007.19
2017-05-04T00:59:36.638Z,1007.22
2017-05-04T01:00:46.900Z,1007.22
2017-05-04T01:01:56.848Z,1007.22
2017-05-04T01:03:07.132Z,1007.24
2017-05-04T01:04:17.390Z,1007.27
2017-05-04T01:05:27.650Z,1007.25
2017-05-04T01:06:37.599Z,1007.28
2017-05-04T01:07:47.859Z,1007.28
2017-05-04T01:08:58.117Z,1007.27
2017-05-04T01:10:08.377Z,1007.28
2017-05-04T01:11:18.008Z,1007.29
2017-05-04T01:12:27.951Z,1007.29
2017-05-04T01:15:09.287Z,1007.27
2017-05-04T01:16:19.232Z,1007.24
2017-05-04T01:17:29.490Z,1007.23
2017-05-04T01:18:39.757Z,1007.26
2017-05-04T01:19:50.320Z,1007.23
2017-05-04T01:21:00.577Z,1007.32
2017-05-04T01:22:10.833Z,1007.34
2017-05-04T01:23:20.771Z,1007.33
2017-05-04T01:24:30.719Z,1007.3
2017-05-04T01:25:41.260Z,1007.32
2017-05-04T01:26:51.205Z,1007.25
2017-05-04T01:28:01.465Z,1007.3
2017-05-04T01:29:11.723Z,1007.3
2017-05-04T01:30:21.983Z,1007.32
2017-05-04T01:32:46.336Z,1007.4
2017-05-04T01:33:56.284Z,1007.45
2017-05-04T01:35:06.543Z,1007.41
2017-05-04T01:36:16.489Z,1007.41
2017-05-04T01:37:26.990Z,1007.4
2017-05-04T01:38:37.252Z,1007.42
2017-05-04T01:39:47.513Z,1007.44
2017-05-04T01:40:57.768Z,1007.43
2017-05-04T01:42:07.719Z,1007.4
2017-05-04T01:43:18.281Z,1007.43
2017-05-04T01:44:28.538Z,1007.43
2017-05-04T01:45:38.802Z,1007.41
2017-05-04T01:46:49.064Z,1007.44
2017-05-04T01:47:59.347Z,1007.48
2017-05-04T01:49:09.853Z,1007.51
2017-05-04T01:50:19.795Z,1007.54
2017-05-04T01:51:30.059Z,1007.49
2017-05-04T01:52:40.345Z,1007.56
2017-05-04T01:53:50.608Z,1007.55
2017-05-04T01:55:01.163Z,1007.58
2017-05-04T01:56:11.106Z,1007.58
2017-05-04T01:57:21.047Z,1007.57
2017-05-04T01:58:30.991Z,1007.59
2017-05-04T01:59:41.255Z,1007.59
2017-05-04T02:00:51.773Z,1007.57
2017-05-04T02:02:02.039Z,1007.56
2017-05-04T02:03:12.300Z,1007.53
2017-05-04T02:04:22.561Z,1007.53
2017-05-04T02:05:32.510Z,1007.55
2017-05-04T02:06:43.066Z,1007.53
2017-05-04T02:07:53.319Z,1007.57
2017-05-04T02:09:03.261Z,1007.59
2017-05-04T02:10:12.894Z,1007.55
2017-05-04T02:11:23.157Z,1007.62
2017-05-04T02:12:33.716Z,1007.61
2017-05-04T02:13:43.987Z,1007.59
2017-05-04T02:14:53.933Z,1007.58
2017-05-04T02:16:04.195Z,1007.55
2017-05-04T02:17:14.456Z,1007.58
2017-05-04T02:18:24.966Z,1007.56
2017-05-04T02:19:35.233Z,1007.59
2017-05-04T02:20:44.873Z,1007.59
2017-05-04T02:21:55.130Z,1007.57
2017-05-04T02:23:05.394Z,1007.54
2017-05-04T02:24:15.326Z,1007.54
2017-05-04T02:25:25.622Z,1007.59
2017-05-04T02:26:35.880Z,1007.57
2017-05-04T02:27:46.134Z,1007.55
2017-05-04T02:28:56.074Z,1007.51
2017-05-04T02:30:06.581Z,1007.58
2017-05-04T02:31:16.529Z,1007.58
2017-05-04T02:32:26.787Z,1007.65
2017-05-04T02:33:37.040Z,1007.61
2017-05-04T02:34:47.301Z,1007.62
2017-05-04T02:37:16.865Z,1007.65
2017-05-04T02:38:27.132Z,1007.67
2017-05-04T02:39:37.402Z,1007.65
2017-05-04T02:40:47.663Z,1007.64
2017-05-04T02:41:58.173Z,1007.62
2017-05-04T02:43:07.805Z,1007.61
2017-05-04T02:44:17.750Z,1007.63
2017-05-04T02:45:27.701Z,1007.63
2017-05-04T02:46:37.961Z,1007.66
2017-05-04T02:47:48.472Z,1007.68
2017-05-04T02:48:58.737Z,1007.66
2017-05-04T02:50:08.997Z,1007.66
2017-05-04T02:51:19.258Z,1007.7
2017-05-04T02:52:29.517Z,1007.7
2017-05-04T02:53:40.025Z,1007.73
2017-05-04T02:54:50.287Z,1007.75
2017-05-04T02:56:00.541Z,1007.66
2017-05-04T02:57:10.482Z,1007.72
2017-05-04T02:58:20.739Z,1007.72
2017-05-04T02:59:31.293Z,1007.71
2017-05-04T03:00:41.548Z,1007.73
2017-05-04T03:01:51.820Z,1007.69
2017-05-04T03:03:02.079Z,1007.7
2017-05-04T03:04:12.343Z,1007.67
2017-05-04T03:05:22.875Z,1007.66
2017-05-04T03:06:33.132Z,1007.69
2017-05-04T03:07:43.419Z,1007.69
2017-05-04T03:08:53.676Z,1007.66
2017-05-04T03:10:03.617Z,1007.66
2017-05-04T03:11:14.178Z,1007.65
2017-05-04T03:12:24.435Z,1007.68
2017-05-04T03:13:34.708Z,1007.68
2017-05-04T03:14:44.654Z,1007.69
2017-05-04T03:15:54.607Z,1007.72
2017-05-04T03:17:04.797Z,1007.71
2017-05-04T03:18:14.425Z,1007.72
2017-05-04T03:19:24.681Z,1007.72
2017-05-04T03:20:34.937Z,1007.75
2017-05-04T03:21:44.887Z,1007.74
2017-05-04T03:22:57.450Z,1007.74
2017-05-04T03:24:07.737Z,1007.77
2017-05-04T03:25:17.366Z,1007.76
2017-05-04T03:26:27.307Z,1007.73
2017-05-04T03:27:37.560Z,1007.75
2017-05-04T03:28:48.064Z,1007.7
2017-05-04T03:29:58.322Z,1007.74
2017-05-04T03:31:08.597Z,1007.67
2017-05-04T03:32:18.537Z,1007.69
2017-05-04T03:33:28.480Z,1007.68
2017-05-04T03:35:51.540Z,1007.7
2017-05-04T03:37:01.795Z,1007.72
2017-05-04T03:38:12.056Z,1007.72
2017-05-04T03:39:22.002Z,1007.75
2017-05-04T03:40:32.560Z,1007.75
2017-05-04T03:41:42.503Z,1007.78
2017-05-04T03:42:52.446Z,1007.82
2017-05-04T03:44:02.705Z,1007.81
2017-05-04T03:45:12.973Z,1007.84
2017-05-04T03:46:23.215Z,1007.88
2017-05-04T03:47:33.465Z,1007.93
2017-05-04T03:48:43.736Z,1007.93
2017-05-04T03:49:53.993Z,1007.97
2017-05-04T03:51:04.254Z,1007.99
2017-05-04T03:52:14.450Z,1007.95
2017-05-04T03:53:24.394Z,1007.99
2017-05-04T03:54:34.673Z,1007.97
2017-05-04T03:55:44.929Z,1008
2017-05-04T03:56:55.188Z,1008
2017-05-04T03:58:05.426Z,1008.01
2017-05-04T03:59:15.372Z,1008.04
2017-05-04T04:00:25.636Z,1008.04
2017-05-04T04:01:35.891Z,1008.01
2017-05-04T04:02:46.160Z,1008.04
2017-05-04T04:03:56.670Z,1008.05
2017-05-04T04:05:05.982Z,1008.05
2017-05-04T04:06:15.925Z,1008.04
2017-05-04T04:07:26.208Z,1008.04
2017-05-04T04:08:36.469Z,1008.04
2017-05-04T04:09:46.668Z,1008.06
2017-05-04T04:10:56.927Z,1008.05
2017-05-04T04:12:07.181Z,1008.02
2017-05-04T04:13:16.815Z,1008.05
2017-05-04T04:14:27.071Z,1008.03
2017-05-04T04:15:37.584Z,1008.06
2017-05-04T04:16:47.842Z,1008.01
2017-05-04T04:17:58.097Z,1008.01
2017-05-04T04:19:07.754Z,1008.04
2017-05-04T04:20:17.384Z,1008.03
2017-05-04T04:21:27.891Z,1008.01
2017-05-04T04:22:38.144Z,1008.04
2017-05-04T04:23:48.401Z,1008.03
2017-05-04T04:24:58.662Z,1008.04
2017-05-04T04:26:08.600Z,1008.05
2017-05-04T04:27:18.802Z,1008.02
2017-05-04T04:28:28.752Z,1008.01
2017-05-04T04:29:39.016Z,1008.06
2017-05-04T04:30:49.278Z,1008.01
2017-05-04T04:31:58.905Z,1008.07
2017-05-04T04:33:09.466Z,1008.04
2017-05-04T04:34:19.724Z,1008.05
2017-05-04T04:35:29.672Z,1008.1
2017-05-04T04:36:39.618Z,1008.05
2017-05-04T04:37:49.876Z,1008.07
2017-05-04T04:39:00.396Z,1008.11
2017-05-04T04:40:10.651Z,1008.11
2017-05-04T04:41:20.908Z,1008.08
2017-05-04T04:42:31.173Z,1008.15
2017-05-04T04:43:41.437Z,1008.16
2017-05-04T04:44:51.694Z,1008.12
2017-05-04T04:46:01.950Z,1008.16
2017-05-04T04:47:11.892Z,1008.11
2017-05-04T04:48:22.147Z,1008.11
2017-05-04T04:49:32.409Z,1008.17
2017-05-04T04:50:42.967Z,1008.15
2017-05-04T04:51:53.218Z,1008.19
2017-05-04T04:53:03.475Z,1008.15
2017-05-04T04:54:13.735Z,1008.17
2017-05-04T04:55:23.998Z,1008.15
2017-05-04T04:56:34.505Z,1008.14
2017-05-04T04:57:44.779Z,1008.15
2017-05-04T04:58:54.731Z,1008.14
2017-05-04T05:00:04.991Z,1008.15
2017-05-04T05:01:14.933Z,1008.14
2017-05-04T05:02:25.439Z,1008.12
2017-05-04T05:03:35.692Z,1008.12
2017-05-04T05:04:45.956Z,1008.09
2017-05-04T05:05:56.211Z,1008.09
2017-05-04T05:07:06.465Z,1008.12
2017-05-04T05:08:16.706Z,1008.1
2017-05-04T05:09:26.956Z,1008.09
2017-05-04T05:10:36.911Z,1008.08
2017-05-04T05:11:47.177Z,1008.11
2017-05-04T05:12:57.438Z,1008.11
2017-05-04T05:14:07.698Z,1008.09
2017-05-04T05:15:17.341Z,1008.1
2017-05-04T05:16:27.601Z,1008.1
2017-05-04T05:17:37.862Z,1008.09
2017-05-04T05:18:47.808Z,1008.07
2017-05-04T05:19:57.748Z,1008.12
2017-05-04T05:21:08.014Z,1008.14
2017-05-04T05:22:18.285Z,1008.1
2017-05-04T05:23:28.556Z,1008.13
2017-05-04T05:24:38.816Z,1008.16
2017-05-04T05:25:49.081Z,1008.21
2017-05-04T05:26:59.346Z,1008.18
2017-05-04T05:28:09.606Z,1008.18
2017-05-04T05:29:19.864Z,1008.16
2017-05-04T05:30:30.126Z,1008.18
2017-05-04T05:31:40.391Z,1008.13
2017-05-04T05:32:50.665Z,1008.16
2017-05-04T05:34:00.935Z,1008.19
2017-05-04T05:35:11.201Z,1008.15
2017-05-04T05:36:21.463Z,1008.18
2017-05-04T05:37:31.724Z,1008.14
2017-05-04T05:38:41.981Z,1008.13
2017-05-04T05:39:52.240Z,1008.13
2017-05-04T05:41:02.506Z,1008.15
2017-05-04T05:42:12.453Z,1008.07
2017-05-04T05:43:22.714Z,1008.07
2017-05-04T05:44:32.663Z,1008.1
2017-05-04T05:45:42.607Z,1008.11
2017-05-04T05:46:52.869Z,1008.03
2017-05-04T05:48:03.134Z,1008.06
2017-05-04T05:49:13.090Z,1008.01
2017-05-04T05:50:23.045Z,1008.02
2017-05-04T05:51:33.325Z,1008.01
2017-05-04T05:52:43.595Z,1008.01
2017-05-04T05:53:53.858Z,1008.02
2017-05-04T05:55:03.798Z,1008.03
2017-05-04T05:56:13.433Z,1008
2017-05-04T05:57:23.691Z,1007.97
2017-05-04T05:58:33.961Z,1007.96
2017-05-04T05:59:44.211Z,1007.97
2017-05-04T06:00:54.470Z,1007.97
2017-05-04T06:02:04.731Z,1007.98
2017-05-04T06:03:14.680Z,1008.02
2017-05-04T06:04:24.950Z,1008
2017-05-04T06:05:35.209Z,1008.03
2017-05-04T06:06:45.476Z,1008.04
2017-05-04T06:07:55.737Z,1008.05
2017-05-04T06:09:05.679Z,1008.06
2017-05-04T06:10:15.939Z,1008.02
2017-05-04T06:11:25.884Z,1007.99
2017-05-04T06:12:36.160Z,1007.98
2017-05-04T06:13:46.424Z,1007.99
2017-05-04T06:14:56.722Z,1007.98
2017-05-04T06:16:06.696Z,1007.99
2017-05-04T06:17:16.323Z,1008.02
2017-05-04T06:18:26.268Z,1008.01
2017-05-04T06:19:36.534Z,1007.98
2017-05-04T06:20:46.791Z,1008.02
2017-05-04T06:21:57.046Z,1008.02
2017-05-04T06:23:07.309Z,1007.99
2017-05-04T06:24:17.563Z,1007.97
2017-05-04T06:25:27.507Z,1008.02
2017-05-04T06:26:37.766Z,1007.99
2017-05-04T06:27:48.027Z,1007.95
2017-05-04T06:28:57.974Z,1007.94
2017-05-04T06:30:07.924Z,1007.92
2017-05-04T06:31:18.188Z,1007.92
2017-05-04T06:32:28.443Z,1007.92
2017-05-04T06:33:38.702Z,1007.94
2017-05-04T06:34:48.643Z,1007.94
2017-05-04T06:35:58.904Z,1007.95
2017-05-04T06:37:08.848Z,1007.95
2017-05-04T06:38:19.118Z,1007.9
2017-05-04T06:39:29.379Z,1007.87
2017-05-04T06:40:39.635Z,1007.88
2017-05-04T06:41:49.898Z,1007.86
2017-05-04T06:42:59.528Z,1007.83
2017-05-04T06:44:09.796Z,1007.82
2017-05-04T06:45:20.066Z,1007.81
2017-05-04T06:46:30.326Z,1007.8
2017-05-04T06:47:40.597Z,1007.82
2017-05-04T06:48:50.856Z,1007.85
2017-05-04T06:50:01.119Z,1007.81
2017-05-04T06:51:11.379Z,1007.84
2017-05-04T06:52:21.641Z,1007.87
2017-05-04T06:53:31.902Z,1007.88
2017-05-04T06:54:42.172Z,1007.85
2017-05-04T06:55:52.425Z,1007.84
2017-05-04T06:57:02.374Z,1007.86
2017-05-04T06:58:12.665Z,1007.83
2017-05-04T06:59:23.260Z,1007.8
2017-05-04T07:00:33.094Z,1007.83
2017-05-04T07:01:43.353Z,1007.86
2017-05-04T07:02:53.613Z,1007.89
2017-05-04T07:04:03.558Z,1007.88
2017-05-04T07:05:20.242Z,1007.87
2017-05-04T07:06:30.391Z,1007.83
2017-05-04T07:07:40.549Z,1007.84
2017-05-04T07:08:51.030Z,1007.81
2017-05-04T07:10:01.505Z,1007.84
2017-05-04T07:11:11.659Z,1007.82
2017-05-04T07:12:21.812Z,1007.82
2017-05-04T07:13:32.290Z,1007.82
2017-05-04T07:14:42.450Z,1007.77
2017-05-04T07:15:52.597Z,1007.8
2017-05-04T07:17:03.079Z,1007.81
2017-05-04T07:18:13.556Z,1007.82
2017-05-04T07:19:24.044Z,1007.85
2017-05-04T07:20:34.210Z,1007.78
2017-05-04T07:21:44.711Z,1007.84
2017-05-04T07:22:55.624Z,1007.84
2017-05-04T07:24:05.778Z,1007.84
2017-05-04T07:25:15.288Z,1007.82
2017-05-04T07:26:25.767Z,1007.76
2017-05-04T07:27:36.245Z,1007.78
2017-05-04T07:28:46.730Z,1007.73
2017-05-04T07:29:57.221Z,1007.74
2017-05-04T07:31:07.373Z,1007.77
2017-05-04T07:32:17.526Z,1007.74
2017-05-04T07:33:28.009Z,1007.78
2017-05-04T07:34:38.492Z,1007.81
2017-05-04T07:35:48.975Z,1007.75
2017-05-04T07:36:59.456Z,1007.75
2017-05-04T07:38:09.604Z,1007.74
2017-05-04T07:39:20.111Z,1007.75
2017-05-04T07:40:30.272Z,1007.75
2017-05-04T07:41:40.431Z,1007.74
2017-05-04T07:42:50.915Z,1007.7
2017-05-04T07:44:01.394Z,1007.69
2017-05-04T07:45:11.908Z,1007.66
2017-05-04T07:46:21.732Z,1007.71
2017-05-04T07:47:32.218Z,1007.68
2017-05-04T07:48:42.371Z,1007.7
2017-05-04T07:49:52.852Z,1007.68
2017-05-04T07:51:03.007Z,1007.72
2017-05-04T07:52:13.168Z,1007.71
2017-05-04T07:53:23.327Z,1007.71
2017-05-04T07:54:33.811Z,1007.76
2017-05-04T07:55:43.969Z,1007.74
2017-05-04T07:56:54.451Z,1007.76
2017-05-04T07:58:04.969Z,1007.72
2017-05-04T07:59:15.117Z,1007.74
2017-05-04T08:00:24.302Z,1007.71
2017-05-04T08:01:34.782Z,1007.73
2017-05-04T08:02:45.262Z,1007.7
2017-05-04T08:03:55.850Z,1007.74
2017-05-04T08:05:05.673Z,1007.68
2017-05-04T08:06:16.158Z,1007.65
2017-05-04T08:07:26.318Z,1007.66
2017-05-04T08:08:36.795Z,1007.61
2017-05-04T08:09:47.281Z,1007.63
2017-05-04T08:10:57.438Z,1007.63
2017-05-04T08:12:07.923Z,1007.61
2017-05-04T08:13:18.402Z,1007.57
2017-05-04T08:14:28.555Z,1007.57
2017-05-04T08:15:39.031Z,1007.53
2017-05-04T08:16:49.502Z,1007.51
2017-05-04T08:17:59.355Z,1007.47
2017-05-04T08:19:09.839Z,1007.5
2017-05-04T08:20:19.715Z,1007.49
2017-05-04T08:21:30.195Z,1007.49
2017-05-04T08:22:40.022Z,1007.5
2017-05-04T08:23:50.416Z,1007.46
2017-05-04T08:25:00.908Z,1007.5
2017-05-04T08:26:11.389Z,1007.5
2017-05-04T08:27:21.541Z,1007.48
2017-05-04T08:28:31.695Z,1007.5
2017-05-04T08:29:42.614Z,1007.46
2017-05-04T08:30:52.770Z,1007.47
2017-05-04T08:32:03.280Z,1007.48
2017-05-04T08:33:13.455Z,1007.47
2017-05-04T08:34:23.611Z,1007.43
2017-05-04T08:35:34.099Z,1007.45
2017-05-04T08:36:44.580Z,1007.41
2017-05-04T08:37:54.737Z,1007.45
2017-05-04T08:39:05.222Z,1007.46
2017-05-04T08:40:15.699Z,1007.45
2017-05-04T08:41:25.848Z,1007.43
2017-05-04T08:42:36.331Z,1007.42
2017-05-04T08:43:46.814Z,1007.41
2017-05-04T08:44:57.297Z,1007.37
2017-05-04T08:46:07.128Z,1007.39
2017-05-04T08:47:17.611Z,1007.38
2017-05-04T08:48:28.094Z,1007.33
2017-05-04T08:49:38.246Z,1007.36
2017-05-04T08:50:48.725Z,1007.29
2017-05-04T08:51:58.558Z,1007.31
2017-05-04T08:53:08.719Z,1007.32
2017-05-04T08:54:18.546Z,1007.31
2017-05-04T08:55:29.033Z,1007.32
2017-05-04T08:56:39.193Z,1007.31
2017-05-04T08:57:49.677Z,1007.29
2017-05-04T08:58:59.831Z,1007.29
2017-05-04T09:00:09.988Z,1007.27
2017-05-04T09:01:19.817Z,1007.26
2017-05-04T09:02:30.297Z,1007.26
2017-05-04T09:03:40.457Z,1007.21
2017-05-04T09:04:50.945Z,1007.24
2017-05-04T09:06:01.103Z,1007.2
2017-05-04T09:07:11.588Z,1007.24
2017-05-04T09:08:21.416Z,1007.22
2017-05-04T09:09:31.575Z,1007.14
2017-05-04T09:10:41.742Z,1007.14
2017-05-04T09:11:51.897Z,1007.13
2017-05-04T09:13:02.379Z,1007.11
2017-05-04T09:14:12.858Z,1007.11
2017-05-04T09:15:23.341Z,1007.04
2017-05-04T09:16:33.838Z,1007.05
2017-05-04T09:17:43.993Z,1007.05
2017-05-04T09:18:54.152Z,1006.98
2017-05-04T09:20:04.637Z,1007.01
2017-05-04T09:21:14.485Z,1007
2017-05-04T09:22:24.966Z,1006.99
2017-05-04T09:23:35.124Z,1006.97
2017-05-04T09:24:45.614Z,1007.01
2017-05-04T09:25:56.099Z,1007.02
2017-05-04T09:27:06.590Z,1006.97
2017-05-04T09:28:16.741Z,1006.99
2017-05-04T09:29:26.897Z,1006.99
2017-05-04T09:30:37.392Z,1006.96
2017-05-04T09:31:47.881Z,1006.96
2017-05-04T09:32:58.364Z,1006.91
2017-05-04T09:34:08.856Z,1006.9
2017-05-04T09:35:19.339Z,1006.89
2017-05-04T09:36:29.782Z,1006.94
2017-05-04T09:37:40.269Z,1006.88
2017-05-04T09:38:50.763Z,1006.91
2017-05-04T09:40:01.690Z,1006.9
2017-05-04T09:41:12.172Z,1006.87
2017-05-04T09:42:22.653Z,1006.81
2017-05-04T09:43:32.812Z,1006.82
2017-05-04T09:44:42.981Z,1006.83
2017-05-04T09:45:53.136Z,1006.81
2017-05-04T09:47:03.392Z,1006.78
2017-05-04T09:48:13.879Z,1006.76
2017-05-04T09:49:24.042Z,1006.76
2017-05-04T09:50:34.206Z,1006.75
2017-05-04T09:51:44.706Z,1006.68
2017-05-04T09:52:54.865Z,1006.69
2017-05-04T09:54:05.024Z,1006.71
2017-05-04T09:55:15.182Z,1006.71
2017-05-04T09:56:24.683Z,1006.78
2017-05-04T09:57:35.163Z,1006.73
2017-05-04T09:58:45.656Z,1006.74
2017-05-04T09:59:55.815Z,1006.79
2017-05-04T10:01:05.997Z,1006.75
2017-05-04T10:02:16.144Z,1006.72
2017-05-04T10:03:26.633Z,1006.71
2017-05-04T10:04:37.138Z,1006.7
2017-05-04T10:05:46.964Z,1006.71
2017-05-04T10:06:57.448Z,1006.72
2017-05-04T10:08:07.603Z,1006.67
2017-05-04T10:09:17.427Z,1006.71
2017-05-04T10:10:27.580Z,1006.63
2017-05-04T10:11:38.068Z,1006.65
2017-05-04T10:12:48.566Z,1006.59
2017-05-04T10:13:58.726Z,1006.58
2017-05-04T10:15:08.554Z,1006.53
2017-05-04T10:16:19.039Z,1006.54
2017-05-04T10:17:29.523Z,1006.5
2017-05-04T10:18:40.464Z,1006.56
2017-05-04T10:19:50.951Z,1006.51
2017-05-04T10:21:01.394Z,1006.54
2017-05-04T10:22:11.879Z,1006.52
2017-05-04T10:23:21.711Z,1006.56
2017-05-04T10:24:32.191Z,1006.59
2017-05-04T10:25:43.118Z,1006.57
2017-05-04T10:26:53.609Z,1006.53
2017-05-04T10:28:04.101Z,1006.53
2017-05-04T10:29:14.685Z,1006.49
2017-05-04T10:30:24.520Z,1006.49
2017-05-04T10:31:34.690Z,1006.46
2017-05-04T10:32:44.848Z,1006.43
2017-05-04T10:33:55.331Z,1006.45
2017-05-04T10:35:05.480Z,1006.41
2017-05-04T10:36:14.982Z,1006.39
2017-05-04T10:37:25.140Z,1006.34
2017-05-04T10:38:35.330Z,1006.33
2017-05-04T10:39:45.812Z,1006.31
2017-05-04T10:40:55.647Z,1006.31
2017-05-04T10:42:06.141Z,1006.31
2017-05-04T10:43:16.630Z,1006.32
2017-05-04T10:44:27.127Z,1006.25
2017-05-04T10:45:37.615Z,1006.24
2017-05-04T10:46:48.099Z,1006.24
2017-05-04T10:47:58.585Z,1006.21
2017-05-04T10:49:08.413Z,1006.23
2017-05-04T10:50:18.900Z,1006.25
2017-05-04T10:51:29.383Z,1006.25
2017-05-04T10:52:39.882Z,1006.29
2017-05-04T10:53:50.401Z,1006.29
2017-05-04T10:55:00.883Z,1006.29
2017-05-04T10:56:11.041Z,1006.28
2017-05-04T10:57:21.537Z,1006.33
2017-05-04T10:58:31.367Z,1006.33
2017-05-04T10:59:41.856Z,1006.38
2017-05-04T11:00:52.039Z,1006.36
2017-05-04T11:02:02.525Z,1006.39
2017-05-04T11:03:13.013Z,1006.4
2017-05-04T11:04:23.497Z,1006.4
2017-05-04T11:05:33.658Z,1006.36
2017-05-04T11:06:44.144Z,1006.42
2017-05-04T11:07:54.307Z,1006.4
2017-05-04T11:09:04.478Z,1006.41
2017-05-04T11:10:14.974Z,1006.46
2017-05-04T11:11:25.468Z,1006.5
2017-05-04T11:12:35.628Z,1006.48
2017-05-04T11:13:46.114Z,1006.52
2017-05-04T11:14:56.610Z,1006.53
2017-05-04T11:16:07.096Z,1006.54
2017-05-04T11:17:17.590Z,1006.51
2017-05-04T11:18:27.750Z,1006.52
2017-05-04T11:19:38.254Z,1006.62
2017-05-04T11:20:48.745Z,1006.69
2017-05-04T11:21:59.239Z,1006.67
2017-05-04T11:23:09.405Z,1006.66
2017-05-04T11:24:19.570Z,1006.69
2017-05-04T11:25:30.068Z,1006.72
2017-05-04T11:26:40.558Z,1006.82
2017-05-04T11:27:51.045Z,1006.82
2017-05-04T11:29:01.538Z,1006.83
2017-05-04T11:30:12.034Z,1006.91
2017-05-04T11:31:22.487Z,1006.92
2017-05-04T11:32:32.655Z,1006.94
2017-05-04T11:33:43.148Z,1006.88
2017-05-04T11:34:53.316Z,1006.86
2017-05-04T11:36:03.812Z,1006.78
2017-05-04T11:37:14.317Z,1006.87
2017-05-04T11:38:24.818Z,1006.92
2017-05-04T11:39:34.655Z,1006.86
2017-05-04T11:40:45.154Z,1006.77
2017-05-04T11:41:55.322Z,1006.76
2017-05-04T11:43:05.818Z,1006.65
2017-05-04T11:44:15.982Z,1006.71
2017-05-04T11:45:25.827Z,1006.74
2017-05-04T11:46:36.325Z,1006.7
2017-05-04T11:47:46.489Z,1006.63
2017-05-04T11:48:57.045Z,1006.69
2017-05-04T11:50:07.225Z,1006.58
2017-05-04T11:51:17.727Z,1006.64
2017-05-04T11:52:27.563Z,1006.56
2017-05-04T11:53:38.067Z,1006.53
2017-05-04T11:54:48.239Z,1006.58
2017-05-04T11:55:58.403Z,1006.58
2017-05-04T11:57:08.570Z,1006.43
2017-05-04T11:58:19.075Z,1006.47
2017-05-04T11:59:30.448Z,1006.51
2017-05-04T12:00:40.939Z,1006.43
2017-05-04T12:01:51.441Z,1006.48
2017-05-04T12:03:01.938Z,1006.5
2017-05-04T12:04:12.112Z,1006.6
2017-05-04T12:05:23.033Z,1006.5
2017-05-04T12:06:33.212Z,1006.56
2017-05-04T12:07:43.338Z,1006.77
2017-05-04T12:08:53.499Z,1006.72
2017-05-04T12:10:03.993Z,1006.64
2017-05-04T12:11:14.160Z,1006.74
2017-05-04T12:12:24.327Z,1006.63
2017-05-04T12:13:35.261Z,1006.82
2017-05-04T12:14:45.760Z,1006.74
2017-05-04T12:15:56.257Z,1006.8
2017-05-04T12:17:06.754Z,1006.77
2017-05-04T12:18:17.246Z,1006.61
2017-05-04T12:19:28.209Z,1006.61
2017-05-04T12:20:38.379Z,1006.51
2017-05-04T12:21:48.872Z,1006.47
2017-05-04T12:22:59.802Z,1006.41
2017-05-04T12:24:09.969Z,1006.39
2017-05-04T12:25:20.139Z,1006.39
2017-05-04T12:26:30.312Z,1006.37
2017-05-04T12:27:40.857Z,1006.3
2017-05-04T12:28:51.351Z,1006.41
2017-05-04T12:30:01.864Z,1006.4
2017-05-04T12:31:12.798Z,1006.83
2017-05-04T12:32:23.298Z,1007.15
2017-05-04T12:33:33.801Z,1006.98
2017-05-04T12:34:44.302Z,1007.51
2017-05-04T12:35:54.801Z,1007.62
2017-05-04T12:37:05.735Z,1007.02
2017-05-04T12:38:17.120Z,1006.63
2017-05-04T12:39:27.618Z,1006.6
2017-05-04T12:40:38.541Z,1006.59
2017-05-04T12:41:48.710Z,1006.25
2017-05-04T12:42:58.551Z,1006
2017-05-04T12:44:09.047Z,1005.91
2017-05-04T12:45:19.547Z,1005.92
2017-05-04T12:46:30.042Z,1005.85
2017-05-04T12:47:40.543Z,1005.81
2017-05-04T12:48:51.056Z,1005.82
2017-05-04T12:50:01.682Z,1005.84
2017-05-04T12:51:12.178Z,1005.91
2017-05-04T12:52:22.346Z,1005.95
2017-05-04T12:53:32.512Z,1005.96
2017-05-04T12:54:43.011Z,1005.92
2017-05-04T12:55:53.511Z,1006.04
2017-05-04T12:57:03.678Z,1006.18
2017-05-04T12:58:13.853Z,1006.53
2017-05-04T12:59:24.348Z,1006.62
2017-05-04T13:00:34.846Z,1006.66
2017-05-04T13:01:45.341Z,1006.68
2017-05-04T13:02:56.118Z,1006.7
2017-05-04T13:04:06.294Z,1006.52
2017-05-04T13:05:16.792Z,1006.72
2017-05-04T13:06:27.292Z,1006.82
2017-05-04T13:07:37.792Z,1006.98
2017-05-04T13:08:48.290Z,1006.83
2017-05-04T13:09:58.453Z,1006.68
2017-05-04T13:11:08.623Z,1006.72
2017-05-04T13:12:19.121Z,1006.9
2017-05-04T13:13:29.613Z,1006.88
2017-05-04T13:14:40.107Z,1006.62
2017-05-04T13:15:50.278Z,1006.34
2017-05-04T13:17:00.782Z,1006.28
2017-05-04T13:18:11.283Z,1006.41
2017-05-04T13:19:21.453Z,1006.57
2017-05-04T13:20:32.383Z,1006.73
2017-05-04T13:21:42.907Z,1006.63
2017-05-04T13:22:53.440Z,1006.66
2017-05-04T13:24:03.946Z,1006.58
2017-05-04T13:25:14.449Z,1006.72
2017-05-04T13:26:24.952Z,1006.85
2017-05-04T13:27:35.458Z,1006.86
2017-05-04T13:28:45.978Z,1006.73
2017-05-04T13:29:56.478Z,1006.73
2017-05-04T13:31:06.650Z,1006.72
2017-05-04T13:32:16.827Z,1006.78
2017-05-04T13:33:27.107Z,1006.64
2017-05-04T13:34:37.617Z,1006.36
2017-05-04T13:35:48.123Z,1006.39
2017-05-04T13:36:58.622Z,1006.26
2017-05-04T13:38:08.805Z,1006.15
2017-05-04T13:39:18.329Z,1006.07
2017-05-04T13:40:28.839Z,1006.18
2017-05-04T13:41:39.344Z,1006.12
2017-05-04T13:42:49.849Z,1005.91
2017-05-04T13:44:00.352Z,1005.9
2017-05-04T13:45:10.201Z,1005.93
2017-05-04T13:46:21.138Z,1005.9
2017-05-04T13:47:31.318Z,1006.2
2017-05-04T13:48:41.826Z,1006.44
2017-05-04T13:49:52.332Z,1006.48
2017-05-04T13:51:02.516Z,1006.55
2017-05-04T13:52:12.690Z,1006.65
2017-05-04T13:53:23.216Z,1006.68
2017-05-04T13:54:33.731Z,1006.6
2017-05-04T13:55:44.254Z,1006.29
2017-05-04T13:56:54.430Z,1006.22
2017-05-04T13:58:04.603Z,1006.19
2017-05-04T13:59:14.783Z,1005.71
2017-05-04T14:00:25.291Z,1006.2
2017-05-04T14:01:35.465Z,1005.5
2017-05-04T14:02:45.971Z,1005.52
2017-05-04T14:03:56.141Z,1006.01
2017-05-04T14:05:06.321Z,1005.73
2017-05-04T14:06:16.169Z,1006.16
2017-05-04T14:07:26.054Z,1006.31
2017-05-04T14:08:36.841Z,1006.25
2017-05-04T14:09:47.345Z,1006.58
2017-05-04T14:10:57.855Z,1006.69
2017-05-04T14:12:08.031Z,1007.03
2017-05-04T14:13:18.533Z,1007.54
2017-05-04T14:14:29.035Z,1007.79
2017-05-04T14:15:39.541Z,1008.11
2017-05-04T14:16:50.053Z,1008.83
2017-05-04T14:18:00.553Z,1009.46
2017-05-04T14:19:11.053Z,1009.56